createdAt,value
2018-08-11T00:00:51.794Z,14.61
2018-08-11T00:03:20.308Z,14.49
2018-08-11T00:05:48.801Z,14.59
2018-08-11T00:08:17.376Z,14.55
2018-08-11T00:10:45.908Z,14.62
2018-08-11T00:13:14.467Z,14.42
2018-08-11T00:15:42.967Z,14.38
2018-08-11T00:18:11.548Z,14.52
2018-08-11T00:20:40.051Z,14.46
2018-08-11T00:23:08.546Z,14.37
2018-08-11T00:25:37.105Z,14.31
2018-08-11T00:28:05.708Z,14.25
2018-08-11T00:30:34.165Z,14.32
2018-08-11T00:33:02.700Z,14.30
2018-08-11T00:35:31.229Z,14.31
2018-08-11T00:37:59.821Z,14.25
2018-08-11T00:40:28.569Z,14.26
2018-08-11T00:42:57.073Z,14.15
2018-08-11T00:45:25.698Z,14.28
2018-08-11T00:47:54.277Z,14.29
2018-08-11T00:50:25.843Z,14.16
2018-08-11T00:52:54.557Z,14.21
2018-08-11T00:55:23.083Z,14.14
2018-08-11T00:57:51.572Z,14.10
2018-08-11T01:00:20.564Z,14.15
2018-08-11T01:02:49.092Z,14.07
2018-08-11T01:05:18.986Z,14.13
2018-08-11T01:07:47.907Z,14.05
2018-08-11T01:10:16.872Z,14.05
2018-08-11T01:12:46.341Z,13.98
2018-08-11T01:15:18.724Z,13.95
2018-08-11T01:17:47.911Z,13.95
2018-08-11T01:20:16.797Z,14.00
2018-08-11T01:22:46.169Z,13.98
2018-08-11T01:25:15.030Z,13.95
2018-08-11T01:27:43.572Z,13.91
2018-08-11T01:30:15.408Z,13.87
2018-08-11T01:32:44.236Z,13.81
2018-08-11T01:35:13.001Z,13.84
2018-08-11T01:37:42.468Z,13.81
2018-08-11T01:40:12.297Z,13.78
2018-08-11T01:42:41.964Z,13.75
2018-08-11T01:45:11.507Z,13.75
2018-08-11T01:47:40.598Z,13.60
2018-08-11T01:50:10.727Z,13.43
2018-08-11T01:52:40.277Z,13.36
2018-08-11T01:55:10.999Z,13.36
2018-08-11T01:57:39.666Z,13.31
2018-08-11T02:00:10.134Z,13.21
2018-08-11T02:02:38.851Z,13.35
2018-08-11T02:05:07.884Z,13.52
2018-08-11T02:07:36.818Z,13.64
2018-08-11T02:10:07.095Z,13.72
2018-08-11T02:12:35.664Z,13.68
2018-08-11T02:15:05.105Z,13.70
2018-08-11T02:17:33.581Z,13.78
2018-08-11T02:20:02.126Z,13.74
2018-08-11T02:22:30.634Z,13.66
2018-08-11T02:24:59.168Z,13.50
2018-08-11T02:27:27.762Z,13.52
2018-08-11T02:29:56.286Z,13.43
2018-08-11T02:32:24.803Z,13.47
2018-08-11T02:34:53.313Z,13.37
2018-08-11T02:37:21.837Z,13.36
2018-08-11T02:39:50.362Z,13.44
2018-08-11T02:42:18.912Z,13.12
2018-08-11T02:44:47.405Z,13.15
2018-08-11T02:47:15.875Z,13.21
2018-08-11T02:49:44.405Z,13.22
2018-08-11T02:52:12.868Z,13.13
2018-08-11T02:54:41.465Z,13.05
2018-08-11T02:57:09.953Z,12.90
2018-08-11T02:59:38.389Z,12.78
2018-08-11T03:02:06.887Z,12.70
2018-08-11T03:04:35.349Z,12.69
2018-08-11T03:07:04.135Z,12.73
2018-08-11T03:09:32.610Z,12.61
2018-08-11T03:12:01.072Z,12.52
2018-08-11T03:14:29.600Z,12.52
2018-08-11T03:16:58.116Z,12.54
2018-08-11T03:19:26.662Z,12.46
2018-08-11T03:21:55.281Z,12.31
2018-08-11T03:24:23.773Z,12.26
2018-08-11T03:26:52.272Z,12.23
2018-08-11T03:29:20.748Z,12.25
2018-08-11T03:31:49.201Z,12.23
2018-08-11T03:34:17.713Z,12.21
2018-08-11T03:36:46.179Z,12.19
2018-08-11T03:39:14.750Z,12.15
2018-08-11T03:41:43.248Z,12.11
2018-08-11T03:44:12.362Z,12.14
2018-08-11T03:46:40.912Z,11.98
2018-08-11T03:49:10.857Z,11.86
2018-08-11T03:51:39.332Z,11.82
2018-08-11T03:54:07.849Z,11.86
2018-08-11T03:56:36.351Z,11.81
2018-08-11T03:59:04.857Z,11.76
2018-08-11T04:01:33.316Z,11.75
2018-08-11T04:04:01.842Z,11.74
2018-08-11T04:06:30.543Z,11.73
2018-08-11T04:09:04.114Z,11.78
2018-08-11T04:11:35.578Z,11.68
2018-08-11T04:14:04.944Z,11.67
2018-08-11T04:16:33.418Z,11.65
2018-08-11T04:19:01.909Z,11.75
2018-08-11T04:21:30.417Z,11.70
2018-08-11T04:23:58.990Z,11.73
2018-08-11T04:26:27.666Z,11.68
2018-08-11T04:28:56.274Z,11.72
2018-08-11T04:32:53.946Z,11.69
2018-08-11T04:35:22.470Z,11.74
2018-08-11T04:37:51.076Z,11.77
2018-08-11T04:40:19.575Z,11.82
2018-08-11T04:42:48.061Z,11.89
2018-08-11T04:45:16.561Z,11.86
2018-08-11T04:47:45.132Z,11.86
2018-08-11T04:50:13.597Z,12.02
2018-08-11T04:52:42.444Z,12.07
2018-08-11T04:55:10.946Z,12.16
2018-08-11T04:57:39.455Z,12.24
2018-08-11T05:00:08.310Z,12.30
2018-08-11T05:02:36.816Z,12.39
2018-08-11T05:05:06.353Z,12.52
2018-08-11T05:07:34.792Z,12.65
2018-08-11T05:10:03.318Z,12.76
2018-08-11T05:12:31.812Z,12.80
2018-08-11T05:15:00.337Z,12.88
2018-08-11T05:17:28.897Z,12.99
2018-08-11T05:19:57.430Z,13.09
2018-08-11T05:22:25.917Z,13.06
2018-08-11T05:24:54.460Z,13.29
2018-08-11T05:27:22.900Z,13.41
2018-08-11T05:29:51.421Z,13.52
2018-08-11T05:32:19.957Z,13.61
2018-08-11T05:34:48.485Z,13.72
2018-08-11T05:37:16.981Z,13.50
2018-08-11T05:39:45.456Z,13.80
2018-08-11T05:42:13.959Z,14.68
2018-08-11T05:44:42.481Z,17.32
2018-08-11T05:47:11.021Z,17.58
2018-08-11T05:49:39.513Z,19.33
2018-08-11T05:52:08.031Z,20.31
2018-08-11T05:54:36.496Z,21.38
2018-08-11T05:57:05.117Z,20.47
2018-08-11T05:59:33.589Z,17.48
2018-08-11T06:02:02.153Z,16.09
2018-08-11T06:04:30.617Z,14.80
2018-08-11T06:06:59.129Z,14.51
2018-08-11T06:09:27.654Z,14.50
2018-08-11T06:11:56.136Z,14.37
2018-08-11T06:14:24.684Z,14.65
2018-08-11T06:16:53.164Z,15.25
2018-08-11T06:19:21.666Z,17.13
2018-08-11T06:21:50.135Z,16.65
2018-08-11T06:24:18.609Z,15.52
2018-08-11T06:26:47.084Z,18.57
2018-08-11T06:29:15.593Z,19.60
2018-08-11T06:31:44.172Z,22.28
2018-08-11T06:34:12.712Z,22.71
2018-08-11T06:36:41.195Z,21.13
2018-08-11T06:39:12.322Z,21.43
2018-08-11T06:41:40.900Z,21.50
2018-08-11T06:44:09.701Z,22.55
2018-08-11T06:46:38.269Z,22.85
2018-08-11T06:49:07.037Z,21.67
2018-08-11T06:51:35.564Z,21.38
2018-08-11T06:54:04.240Z,23.52
2018-08-11T06:56:32.714Z,23.91
2018-08-11T06:59:01.261Z,19.85
2018-08-11T07:01:29.738Z,16.70
2018-08-11T07:03:58.265Z,15.75
2018-08-11T07:06:26.786Z,15.77
2018-08-11T07:08:55.324Z,15.59
2018-08-11T07:11:23.815Z,15.77
2018-08-11T07:13:52.706Z,15.91
2018-08-11T07:16:21.374Z,15.84
2018-08-11T07:18:49.878Z,15.78
2018-08-11T07:21:18.406Z,15.96
2018-08-11T07:23:46.899Z,16.03
2018-08-11T07:26:15.372Z,16.00
2018-08-11T07:28:43.932Z,16.08
2018-08-11T07:31:12.413Z,15.91
2018-08-11T07:33:40.870Z,16.01
2018-08-11T07:36:09.427Z,16.20
2018-08-11T07:38:37.925Z,16.19
2018-08-11T07:41:07.264Z,16.34
2018-08-11T07:43:35.796Z,16.41
2018-08-11T07:46:04.340Z,16.65
2018-08-11T07:48:32.855Z,16.51
2018-08-11T07:51:01.382Z,16.59
2018-08-11T07:53:30.033Z,16.67
2018-08-11T07:55:58.618Z,16.75
2018-08-11T07:58:27.103Z,16.49
2018-08-11T08:00:55.589Z,16.63
2018-08-11T08:03:24.144Z,16.73
2018-08-11T08:05:52.593Z,16.89
2018-08-11T08:08:21.297Z,16.90
2018-08-11T08:10:49.826Z,17.12
2018-08-11T08:13:18.481Z,17.22
2018-08-11T08:15:47.046Z,17.27
2018-08-11T08:18:15.687Z,17.36
2018-08-11T08:20:44.233Z,17.20
2018-08-11T08:23:12.700Z,17.14
2018-08-11T08:25:41.177Z,17.22
2018-08-11T08:28:10.588Z,17.31
2018-08-11T08:30:39.067Z,17.40
2018-08-11T08:33:07.560Z,17.55
2018-08-11T08:35:36.033Z,17.85
2018-08-11T08:38:04.554Z,17.99
2018-08-11T08:40:33.008Z,18.12
2018-08-11T08:43:01.533Z,18.41
2018-08-11T08:45:30.021Z,18.68
2018-08-11T08:47:58.610Z,18.94
2018-08-11T08:50:27.214Z,19.27
2018-08-11T08:52:55.752Z,19.48
2018-08-11T08:55:24.301Z,19.11
2018-08-11T08:57:52.814Z,19.06
2018-08-11T09:00:21.276Z,19.21
2018-08-11T09:02:49.772Z,19.40
2018-08-11T09:05:18.282Z,19.33
2018-08-11T09:07:46.795Z,18.97
2018-08-11T09:10:15.266Z,18.79
2018-08-11T09:12:43.777Z,19.29
2018-08-11T09:15:12.261Z,19.28
2018-08-11T09:17:40.805Z,19.59
2018-08-11T09:20:09.280Z,19.38
2018-08-11T09:22:37.869Z,18.59
2018-08-11T09:25:06.408Z,18.12
2018-08-11T09:27:35.025Z,18.07
2018-08-11T09:30:03.567Z,18.18
2018-08-11T09:32:32.033Z,18.86
2018-08-11T09:35:00.528Z,19.13
2018-08-11T09:37:29.019Z,19.06
2018-08-11T09:39:57.508Z,18.88
2018-08-11T09:49:25.551Z,17.97
2018-08-11T09:51:54.022Z,17.11
2018-08-11T09:54:22.548Z,17.08
2018-08-11T09:56:51.029Z,16.45
2018-08-11T09:59:19.565Z,16.57
2018-08-11T10:01:52.265Z,16.62
2018-08-11T10:04:20.772Z,16.70
2018-08-11T10:06:49.325Z,16.97
2018-08-11T10:09:17.825Z,17.43
2018-08-11T10:11:46.309Z,17.48
2018-08-11T10:14:20.074Z,17.90
2018-08-11T10:16:48.693Z,18.01
2018-08-11T10:19:17.653Z,18.70
2018-08-11T10:21:46.144Z,18.61
2018-08-11T10:24:14.631Z,19.12
2018-08-11T10:26:43.142Z,18.94
2018-08-11T10:29:11.680Z,19.31
2018-08-11T10:31:40.152Z,19.21
2018-08-11T10:34:08.637Z,18.75
2018-08-11T10:36:37.206Z,18.12
2018-08-11T10:39:08.821Z,17.47
2018-08-11T10:41:38.504Z,17.23
2018-08-11T10:44:07.064Z,17.24
2018-08-11T10:46:35.556Z,17.84
2018-08-11T10:49:04.490Z,18.10
2018-08-11T10:51:33.317Z,18.10
2018-08-11T10:54:01.950Z,17.99
2018-08-11T10:56:30.437Z,18.49
2018-08-11T10:58:58.988Z,18.84
2018-08-11T11:01:27.525Z,18.18
2018-08-11T11:03:56.052Z,18.10
2018-08-11T11:06:24.581Z,18.22
2018-08-11T11:08:53.061Z,18.14
2018-08-11T11:11:21.553Z,18.01
2018-08-11T11:13:50.005Z,18.10
2018-08-11T11:16:18.580Z,17.80
2018-08-11T11:18:47.070Z,18.02
2018-08-11T11:21:15.593Z,18.17
2018-08-11T11:23:44.099Z,18.48
2018-08-11T11:26:12.627Z,18.72
2018-08-11T11:28:41.113Z,18.79
2018-08-11T11:31:09.602Z,18.81
2018-08-11T11:33:38.088Z,18.94
2018-08-11T11:36:06.642Z,19.16
2018-08-11T11:38:36.102Z,19.62
2018-08-11T11:41:04.594Z,19.59
2018-08-11T11:43:33.095Z,19.14
2018-08-11T11:46:01.642Z,19.47
2018-08-11T11:48:30.421Z,19.35
2018-08-11T11:50:59.020Z,19.46
2018-08-11T11:53:27.577Z,19.63
2018-08-11T11:55:56.428Z,19.72
2018-08-11T11:58:24.946Z,19.92
2018-08-11T12:00:53.445Z,20.17
2018-08-11T12:03:22.248Z,20.25
2018-08-11T12:05:50.740Z,20.25
2018-08-11T12:08:19.244Z,20.40
2018-08-11T12:10:47.803Z,20.74
2018-08-11T12:13:16.265Z,20.86
2018-08-11T12:15:44.733Z,20.96
2018-08-11T12:18:13.200Z,20.59
2018-08-11T12:20:41.694Z,20.33
2018-08-11T12:23:10.226Z,20.06
2018-08-11T12:25:38.680Z,20.25
2018-08-11T12:28:07.308Z,20.62
2018-08-11T12:30:35.851Z,20.96
2018-08-11T12:33:04.339Z,20.63
2018-08-11T12:35:32.852Z,20.49
2018-08-11T12:38:01.390Z,20.84
2018-08-11T12:40:29.986Z,20.91
2018-08-11T12:42:58.457Z,21.32
2018-08-11T12:45:26.941Z,21.58
2018-08-11T12:47:55.518Z,21.97
2018-08-11T12:50:24.193Z,21.53
2018-08-11T12:52:52.721Z,21.69
2018-08-11T12:55:21.226Z,21.28
2018-08-11T12:57:49.739Z,21.35
2018-08-11T13:00:18.248Z,21.25
2018-08-11T13:02:46.757Z,21.50
2018-08-11T13:05:15.316Z,21.46
2018-08-11T13:07:43.945Z,21.87
2018-08-11T13:10:12.463Z,21.86
2018-08-11T13:12:41.049Z,21.39
2018-08-11T13:15:09.663Z,21.22
2018-08-11T13:17:38.157Z,22.05
2018-08-11T13:20:07.554Z,21.80
2018-08-11T13:22:36.437Z,21.95
2018-08-11T13:25:04.965Z,22.12
2018-08-11T13:27:33.566Z,22.48
2018-08-11T13:30:02.425Z,22.33
2018-08-11T13:32:30.940Z,22.67
2018-08-11T13:34:59.437Z,22.28
2018-08-11T13:37:27.910Z,22.34
2018-08-11T13:39:56.392Z,22.12
2018-08-11T13:42:24.918Z,22.09
2018-08-11T13:44:53.454Z,21.37
2018-08-11T13:47:21.991Z,21.67
2018-08-11T13:49:50.644Z,22.00
2018-08-11T13:52:19.136Z,22.39
2018-08-11T13:54:47.626Z,21.67
2018-08-11T13:57:16.140Z,21.76
2018-08-11T13:59:44.651Z,21.67
2018-08-11T14:02:13.128Z,21.12
2018-08-11T14:04:41.705Z,20.95
2018-08-11T14:07:10.233Z,21.31
2018-08-11T14:09:38.753Z,21.39
2018-08-11T14:12:07.274Z,21.30
2018-08-11T14:14:35.772Z,20.97
2018-08-11T14:17:04.377Z,21.36
2018-08-11T14:19:32.994Z,21.83
2018-08-11T14:22:01.463Z,21.58
2018-08-11T14:24:30.027Z,21.85
2018-08-11T14:26:58.529Z,22.09
2018-08-11T14:29:27.029Z,21.94
2018-08-11T14:31:55.665Z,21.96
2018-08-11T14:34:24.152Z,22.24
2018-08-11T14:36:52.762Z,21.75
2018-08-11T14:39:21.313Z,21.64
2018-08-11T14:41:49.932Z,21.55
2018-08-11T14:44:18.465Z,21.65
2018-08-11T14:46:46.975Z,21.91
2018-08-11T14:49:15.661Z,21.97
2018-08-11T14:51:44.134Z,21.62
2018-08-11T14:54:13.229Z,21.73
2018-08-11T14:56:41.711Z,21.76
2018-08-11T14:59:10.190Z,21.46
2018-08-11T15:01:38.878Z,21.80
2018-08-11T15:04:07.373Z,21.76
2018-08-11T15:06:36.076Z,21.66
2018-08-11T15:09:07.154Z,21.58
2018-08-11T15:11:35.684Z,21.66
2018-08-11T15:14:04.444Z,21.79
2018-08-11T15:16:32.901Z,22.10
2018-08-11T15:19:01.421Z,22.29
2018-08-11T15:21:29.909Z,22.07
2018-08-11T15:23:58.448Z,22.15
2018-08-11T15:26:26.980Z,22.45
2018-08-11T15:28:55.513Z,22.65
2018-08-11T15:31:24.028Z,22.75
2018-08-11T15:33:52.565Z,22.24
2018-08-11T15:36:21.123Z,21.95
2018-08-11T15:38:49.570Z,22.04
2018-08-11T15:41:18.057Z,21.62
2018-08-11T15:43:46.588Z,21.31
2018-08-11T15:46:15.072Z,21.13
2018-08-11T15:48:43.985Z,21.60
2018-08-11T15:51:12.487Z,21.68
2018-08-11T15:53:40.969Z,21.49
2018-08-11T15:56:09.468Z,21.89
2018-08-11T15:58:40.915Z,22.29
2018-08-11T16:01:09.535Z,22.60
2018-08-11T16:03:38.018Z,21.88
2018-08-11T16:06:06.872Z,21.39
2018-08-11T16:08:35.377Z,20.80
2018-08-11T16:11:03.888Z,20.73
2018-08-11T16:13:32.377Z,20.93
2018-08-11T16:16:00.871Z,21.25
2018-08-11T16:18:29.378Z,21.64
2018-08-11T16:20:57.953Z,21.91
2018-08-11T16:23:26.494Z,21.94
2018-08-11T16:25:55.101Z,22.28
2018-08-11T16:28:23.568Z,22.30
2018-08-11T16:30:52.054Z,21.78
2018-08-11T16:33:20.728Z,21.59
2018-08-11T16:35:49.210Z,21.55
2018-08-11T16:38:17.730Z,21.69
2018-08-11T16:40:46.284Z,21.80
2018-08-11T16:43:14.783Z,21.81
2018-08-11T16:45:43.310Z,21.63
2018-08-11T16:48:11.860Z,21.58
2018-08-11T16:50:40.358Z,21.50
2018-08-11T16:53:08.901Z,21.36
2018-08-11T16:55:37.524Z,21.44
2018-08-11T16:58:06.436Z,21.31
2018-08-11T17:00:35.253Z,20.71
2018-08-11T17:03:03.725Z,20.56
2018-08-11T17:05:32.188Z,20.92
2018-08-11T17:08:00.672Z,21.26
2018-08-11T17:10:29.178Z,21.47
2018-08-11T17:12:57.648Z,21.56
2018-08-11T17:15:26.092Z,21.80
2018-08-11T17:17:54.633Z,21.60
2018-08-11T17:20:23.189Z,21.03
2018-08-11T17:22:51.681Z,20.58
2018-08-11T17:25:20.181Z,20.46
2018-08-11T17:27:48.678Z,20.44
2018-08-11T17:30:17.176Z,20.50
2018-08-11T17:32:46.099Z,20.51
2018-08-11T17:35:14.597Z,20.52
2018-08-11T17:37:43.093Z,20.48
2018-08-11T17:40:11.687Z,20.43
2018-08-11T17:42:40.176Z,20.38
2018-08-11T17:45:09.496Z,20.31
2018-08-11T17:47:40.546Z,20.00
2018-08-11T17:50:09.904Z,20.04
2018-08-11T17:52:39.419Z,20.00
2018-08-11T17:55:10.236Z,19.85
2018-08-11T17:57:39.852Z,19.79
2018-08-11T18:00:10.740Z,19.72
2018-08-11T18:02:41.854Z,19.62
2018-08-11T18:05:10.409Z,19.56
2018-08-11T18:07:39.578Z,19.52
2018-08-11T18:10:09.905Z,19.40
2018-08-11T18:12:38.537Z,19.29
2018-08-11T18:15:07.061Z,19.25
2018-08-11T18:17:35.872Z,19.30
2018-08-11T18:20:04.469Z,19.58
2018-08-11T18:22:32.931Z,20.01
2018-08-11T18:25:01.414Z,20.19
2018-08-11T18:27:29.916Z,19.95
2018-08-11T18:29:58.453Z,19.79
2018-08-11T18:32:26.990Z,19.79
2018-08-11T18:34:55.597Z,19.58
2018-08-11T18:37:24.147Z,19.17
2018-08-11T18:39:52.627Z,18.97
2018-08-11T18:42:21.353Z,18.55
2018-08-11T18:44:49.824Z,18.26
2018-08-11T18:47:18.296Z,18.04
2018-08-11T18:49:46.850Z,17.92
2018-08-11T18:52:15.430Z,17.84
2018-08-11T18:54:44.053Z,17.58
2018-08-11T18:57:12.688Z,17.34
2018-08-11T18:59:41.238Z,17.24
2018-08-11T19:02:16.446Z,17.10
2018-08-11T19:04:44.955Z,16.99
2018-08-11T19:07:13.488Z,16.92
2018-08-11T19:09:41.972Z,16.85
2018-08-11T19:12:10.471Z,16.80
2018-08-11T19:14:39.084Z,16.71
2018-08-11T19:17:07.573Z,16.55
2018-08-11T19:19:36.134Z,16.46
2018-08-11T19:22:04.963Z,16.35
2018-08-11T19:24:33.498Z,16.30
2018-08-11T19:27:02.053Z,16.14
2018-08-11T19:29:30.649Z,16.03
2018-08-11T19:31:59.168Z,15.91
2018-08-11T19:34:27.664Z,15.88
2018-08-11T19:36:56.518Z,15.85
2018-08-11T19:39:25.017Z,15.75
2018-08-11T19:41:53.561Z,15.79
2018-08-11T19:44:22.037Z,15.73
2018-08-11T19:46:50.561Z,15.71
2018-08-11T19:49:19.126Z,15.64
2018-08-11T19:51:47.691Z,15.62
2018-08-11T19:54:16.353Z,15.46
2018-08-11T19:56:44.834Z,15.42
2018-08-11T19:59:13.406Z,15.36
2018-08-11T20:01:41.975Z,15.30
2018-08-11T20:04:13.394Z,15.34
2018-08-11T20:06:42.764Z,15.33
2018-08-11T20:09:12.157Z,15.26
2018-08-11T20:11:40.710Z,15.28
2018-08-11T20:14:09.390Z,15.23
2018-08-11T20:16:38.197Z,15.16
2018-08-11T20:19:06.994Z,15.14
2018-08-11T20:21:35.449Z,15.12
2018-08-11T20:24:03.932Z,15.18
2018-08-11T20:26:32.425Z,15.21
2018-08-11T20:29:00.981Z,15.09
2018-08-11T20:31:29.509Z,15.01
2018-08-11T20:33:58.025Z,14.97
2018-08-11T20:36:26.753Z,14.92
2018-08-11T20:38:55.240Z,14.77
2018-08-11T20:41:23.773Z,14.64
2018-08-11T20:43:52.304Z,14.52
2018-08-11T20:46:20.893Z,14.49
2018-08-11T20:48:49.501Z,14.47
2018-08-11T20:51:18.046Z,14.33
2018-08-11T20:53:46.586Z,14.19
2018-08-11T20:56:15.129Z,14.12
2018-08-11T20:58:43.675Z,14.08
2018-08-11T21:01:12.272Z,14.05
2018-08-11T21:03:40.930Z,14.00
2018-08-11T21:06:09.478Z,13.96
2018-08-11T21:08:38.046Z,13.82
2018-08-11T21:11:06.628Z,13.77
2018-08-11T21:13:35.138Z,13.72
2018-08-11T21:16:03.662Z,13.67
2018-08-11T21:18:32.241Z,13.62
2018-08-11T21:21:01.113Z,13.57
2018-08-11T21:23:30.209Z,13.48
2018-08-11T21:25:58.830Z,13.30
2018-08-11T21:28:27.424Z,13.21
2018-08-11T21:30:55.913Z,13.21
2018-08-11T21:33:24.502Z,13.18
2018-08-11T21:35:53.053Z,13.18
2018-08-11T21:38:21.582Z,13.13
2018-08-11T21:40:50.021Z,13.10
2018-08-11T21:43:18.532Z,13.04
2018-08-11T21:45:47.057Z,12.92
2018-08-11T21:48:15.577Z,12.75
2018-08-11T21:50:44.135Z,12.74
2018-08-11T21:53:12.618Z,12.77
2018-08-11T21:55:41.597Z,12.71
2018-08-11T21:58:10.125Z,12.71
2018-08-11T22:00:38.959Z,12.70
2018-08-11T22:03:09.121Z,12.66
2018-08-11T22:05:37.678Z,12.64
2018-08-11T22:08:06.253Z,12.67
2018-08-11T22:10:34.801Z,12.61
2018-08-11T22:13:03.442Z,12.67
2018-08-11T22:15:32.109Z,12.61
2018-08-11T22:18:00.687Z,12.52
2018-08-11T22:20:29.678Z,12.22
2018-08-11T22:22:58.168Z,12.21
2018-08-11T22:25:26.684Z,12.30
2018-08-11T22:27:55.188Z,12.24
2018-08-11T22:30:23.705Z,12.22
2018-08-11T22:32:52.288Z,12.29
2018-08-11T22:35:20.865Z,12.39
2018-08-11T22:37:49.362Z,12.44
2018-08-11T22:40:17.890Z,12.46
2018-08-11T22:42:46.373Z,12.51
2018-08-11T22:45:14.857Z,12.59
2018-08-11T22:47:43.393Z,12.67
2018-08-11T22:50:13.679Z,12.71
2018-08-11T22:52:42.405Z,12.79
2018-08-11T22:55:10.909Z,12.79
2018-08-11T22:57:39.488Z,12.81
2018-08-11T23:00:17.674Z,12.82
2018-08-11T23:02:46.389Z,12.71
2018-08-11T23:05:15.424Z,12.77
2018-08-11T23:07:44.119Z,12.76
2018-08-11T23:10:13.880Z,12.73
2018-08-11T23:12:43.373Z,12.66
2018-08-11T23:15:15.272Z,12.61
2018-08-11T23:17:45.413Z,12.67
2018-08-11T23:20:14.433Z,12.64
2018-08-11T23:22:43.044Z,12.62
2018-08-11T23:25:11.944Z,12.62
2018-08-11T23:27:40.629Z,12.63
2018-08-11T23:30:12.054Z,12.61
2018-08-11T23:32:41.222Z,12.60
2018-08-11T23:35:09.937Z,12.60
2018-08-11T23:37:38.817Z,12.54
2018-08-11T23:40:08.260Z,12.53
2018-08-11T23:42:37.096Z,12.51
2018-08-11T23:45:08.576Z,12.45
2018-08-11T23:47:37.279Z,12.37
2018-08-11T23:50:06.837Z,12.34
2018-08-11T23:52:35.328Z,12.28
2018-08-11T23:55:04.757Z,12.25
2018-08-11T23:57:33.345Z,12.22
